createdAt,value
2022-11-29T00:00:36.206Z,65
2022-11-29T00:01:36.111Z,60
2022-11-29T00:02:36.212Z,61
2022-11-29T00:03:36.100Z,61
2022-11-29T00:04:36.100Z,61
2022-11-29T00:05:36.098Z,60
2022-11-29T00:06:36.096Z,63
2022-11-29T00:07:36.144Z,59
2022-11-29T00:09:36.095Z,63
2022-11-29T00:10:36.106Z,61
2022-11-29T00:11:36.097Z,62
2022-11-29T00:12:36.557Z,66
2022-11-29T00:13:36.099Z,61
2022-11-29T00:14:36.090Z,62
2022-11-29T00:15:36.092Z,59
2022-11-29T00:17:36.103Z,60
2022-11-29T00:18:36.122Z,60
2022-11-29T00:19:36.129Z,67
2022-11-29T00:20:36.108Z,65
2022-11-29T00:21:36.148Z,58
2022-11-29T00:22:36.110Z,66
2022-11-29T00:23:36.125Z,63
2022-11-29T00:24:36.117Z,68
2022-11-29T00:25:36.116Z,62
2022-11-29T00:26:36.126Z,69
2022-11-29T00:27:36.123Z,72
2022-11-29T00:28:36.118Z,74
2022-11-29T00:29:36.119Z,69
2022-11-29T00:30:36.168Z,64
2022-11-29T00:31:36.121Z,69
2022-11-29T00:32:36.144Z,71
2022-11-29T00:33:36.133Z,76
2022-11-29T00:34:36.122Z,73
2022-11-29T00:35:36.150Z,77
2022-11-29T00:36:36.125Z,72
2022-11-29T00:37:36.116Z,71
2022-11-29T00:38:36.132Z,71
2022-11-29T00:39:36.122Z,74
2022-11-29T00:40:36.184Z,76
2022-11-29T00:41:36.124Z,81
2022-11-29T00:43:36.121Z,75
2022-11-29T00:44:36.122Z,78
2022-11-29T00:45:36.218Z,68
2022-11-29T00:46:36.129Z,73
2022-11-29T00:47:36.126Z,70
2022-11-29T00:48:36.116Z,70
2022-11-29T00:49:36.160Z,78
2022-11-29T00:50:36.117Z,78
2022-11-29T00:51:36.147Z,76
2022-11-29T00:52:36.135Z,78
2022-11-29T00:53:36.149Z,76
2022-11-29T00:55:36.125Z,74
2022-11-29T00:57:36.120Z,76
2022-11-29T00:59:36.124Z,76
2022-11-29T01:00:36.128Z,73
2022-11-29T01:01:36.177Z,73
2022-11-29T01:02:36.166Z,66
2022-11-29T01:03:36.123Z,76
2022-11-29T01:04:36.133Z,78
2022-11-29T01:05:36.128Z,80
2022-11-29T01:06:36.134Z,76
2022-11-29T01:07:36.201Z,78
2022-11-29T01:08:36.207Z,80
2022-11-29T01:09:36.128Z,84
2022-11-29T01:11:36.122Z,84
2022-11-29T01:13:36.130Z,85
2022-11-29T01:14:46.683Z,96
2022-11-29T01:15:36.147Z,88
2022-11-29T01:16:36.262Z,96
2022-11-29T01:17:36.133Z,96
2022-11-29T01:18:36.120Z,90
2022-11-29T01:19:36.135Z,96
2022-11-29T01:20:36.117Z,93
2022-11-29T01:21:36.123Z,94
2022-11-29T01:22:36.128Z,100
2022-11-29T01:23:36.127Z,103
2022-11-29T01:24:46.608Z,116
2022-11-29T01:25:36.128Z,114
2022-11-29T01:27:36.130Z,104
2022-11-29T01:29:36.119Z,100
2022-11-29T01:30:36.204Z,109
2022-11-29T01:31:36.125Z,108
2022-11-29T01:33:36.137Z,114
2022-11-29T01:35:36.178Z,127
2022-11-29T01:37:36.139Z,104
2022-11-29T01:38:36.238Z,114
2022-11-29T01:39:36.146Z,112
2022-11-29T01:41:36.134Z,116
2022-11-29T01:42:46.416Z,97
2022-11-29T01:43:36.139Z,109
2022-11-29T01:44:46.730Z,108
2022-11-29T01:46:46.419Z,109
2022-11-29T01:47:36.137Z,112
2022-11-29T01:48:46.404Z,104
2022-11-29T01:51:36.132Z,114
2022-11-29T01:52:46.417Z,123
2022-11-29T01:53:36.149Z,110
2022-11-29T01:54:36.212Z,116
2022-11-29T01:55:36.169Z,111
2022-11-29T01:58:36.137Z,121
2022-11-29T01:59:36.139Z,116
2022-11-29T02:00:36.138Z,111
2022-11-29T02:01:36.190Z,105
2022-11-29T02:02:36.258Z,120
2022-11-29T02:03:36.138Z,111
2022-11-29T02:04:36.138Z,112
2022-11-29T02:05:36.139Z,113
2022-11-29T02:06:36.138Z,114
2022-11-29T02:07:36.201Z,120
2022-11-29T02:08:36.154Z,121
2022-11-29T02:09:36.166Z,121
2022-11-29T02:10:36.519Z,117
2022-11-29T02:11:36.138Z,132
2022-11-29T02:13:36.135Z,122
2022-11-29T02:14:36.165Z,120
2022-11-29T02:16:36.184Z,120
2022-11-29T02:17:36.141Z,113
2022-11-29T02:19:36.141Z,122
2022-11-29T02:20:36.182Z,105
2022-11-29T02:21:36.147Z,111
2022-11-29T02:23:36.131Z,112
2022-11-29T02:24:36.178Z,119
2022-11-29T02:25:36.135Z,122
2022-11-29T02:26:36.171Z,119
2022-11-29T02:28:36.167Z,110
2022-11-29T02:29:36.137Z,127
2022-11-29T02:30:36.226Z,126
2022-11-29T02:31:36.139Z,108
2022-11-29T02:33:36.142Z,115
2022-11-29T02:34:36.159Z,110
2022-11-29T02:36:36.147Z,103
2022-11-29T02:37:36.211Z,101
2022-11-29T02:38:36.140Z,117
2022-11-29T02:39:36.145Z,107
2022-11-29T02:40:36.176Z,110
2022-11-29T02:42:36.142Z,110
2022-11-29T02:43:36.164Z,99
2022-11-29T02:44:36.144Z,108
2022-11-29T02:46:36.142Z,102
2022-11-29T02:47:36.160Z,97
2022-11-29T02:48:36.132Z,102
2022-11-29T02:49:36.163Z,96
2022-11-29T02:50:36.142Z,101
2022-11-29T02:51:36.161Z,93
2022-11-29T02:52:36.145Z,91
2022-11-29T02:53:36.383Z,93
2022-11-29T02:54:36.141Z,92
2022-11-29T02:55:36.140Z,88
2022-11-29T02:56:36.142Z,96
2022-11-29T02:58:36.181Z,94
2022-11-29T02:59:36.184Z,90
2022-11-29T03:00:36.164Z,127
2022-11-29T03:02:36.234Z,103
2022-11-29T03:03:36.170Z,102
2022-11-29T03:05:36.164Z,104
2022-11-29T03:06:36.146Z,88
2022-11-29T03:07:36.255Z,85
2022-11-29T03:08:36.148Z,85
2022-11-29T03:12:36.158Z,85
2022-11-29T03:13:36.152Z,81
2022-11-29T03:14:36.152Z,85
2022-11-29T03:15:36.206Z,84
2022-11-29T03:16:42.583Z,73
2022-11-29T03:17:36.139Z,73
2022-11-29T03:18:36.146Z,76
2022-11-29T03:19:36.165Z,78
2022-11-29T03:20:36.145Z,84
2022-11-29T03:21:36.136Z,118
2022-11-29T03:22:36.150Z,101
2022-11-29T03:23:36.185Z,84
2022-11-29T03:24:36.138Z,90
2022-11-29T03:26:36.137Z,152
2022-11-29T03:27:36.147Z,112
2022-11-29T03:28:36.143Z,80
2022-11-29T03:29:36.140Z,79
2022-11-29T03:31:36.147Z,77
2022-11-29T03:32:36.157Z,77
2022-11-29T03:33:46.472Z,70
2022-11-29T03:34:36.147Z,72
2022-11-29T03:35:37.668Z,79
2022-11-29T03:36:36.171Z,75
2022-11-29T03:37:36.150Z,74
2022-11-29T03:38:36.171Z,74
2022-11-29T03:39:36.175Z,79
2022-11-29T03:40:36.146Z,70
2022-11-29T03:41:36.168Z,70
2022-11-29T03:42:36.182Z,70
2022-11-29T03:43:36.177Z,69
2022-11-29T03:44:36.212Z,75
2022-11-29T03:46:36.259Z,71
2022-11-29T03:47:36.175Z,68
2022-11-29T03:48:36.174Z,71
2022-11-29T03:49:36.170Z,74
2022-11-29T03:50:36.149Z,75
2022-11-29T03:52:36.146Z,78
2022-11-29T03:53:36.171Z,67
2022-11-29T03:54:36.165Z,74
2022-11-29T03:56:36.159Z,73
2022-11-29T03:57:36.204Z,78
2022-11-29T03:58:36.151Z,74
2022-11-29T03:59:36.179Z,72
2022-11-29T04:00:36.141Z,76
2022-11-29T04:02:36.186Z,69
2022-11-29T04:03:36.161Z,74
2022-11-29T04:04:36.150Z,91
2022-11-29T04:05:36.172Z,115
2022-11-29T04:06:36.166Z,93
2022-11-29T04:07:36.174Z,82
2022-11-29T04:08:36.223Z,105
2022-11-29T04:09:36.153Z,74
2022-11-29T04:10:36.161Z,70
2022-11-29T04:11:36.146Z,70
2022-11-29T04:12:36.159Z,69
2022-11-29T04:13:36.179Z,72
2022-11-29T04:14:36.151Z,64
2022-11-29T04:15:36.218Z,69
2022-11-29T04:16:36.157Z,74
2022-11-29T04:17:46.441Z,60
2022-11-29T04:18:36.153Z,66
2022-11-29T04:19:36.183Z,67
2022-11-29T04:20:39.699Z,72
2022-11-29T04:21:36.179Z,67
2022-11-29T04:22:36.170Z,68
2022-11-29T04:23:36.166Z,68
2022-11-29T04:24:36.277Z,66
2022-11-29T04:25:36.180Z,62
2022-11-29T04:26:36.178Z,70
2022-11-29T04:27:36.159Z,82
2022-11-29T04:28:36.160Z,70
2022-11-29T04:29:36.148Z,68
2022-11-29T04:30:36.165Z,288
2022-11-29T04:31:36.174Z,425
2022-11-29T04:32:36.156Z,138
2022-11-29T04:34:36.208Z,170
2022-11-29T04:35:36.159Z,131
2022-11-29T04:37:36.181Z,178
2022-11-29T04:38:36.164Z,200
2022-11-29T04:39:36.165Z,59
2022-11-29T04:40:36.159Z,63
2022-11-29T04:41:36.176Z,67
2022-11-29T04:42:36.174Z,62
2022-11-29T04:43:36.160Z,67
2022-11-29T04:44:46.814Z,67
2022-11-29T04:47:36.167Z,61
2022-11-29T04:48:36.214Z,60
2022-11-29T04:49:36.163Z,53
2022-11-29T04:51:36.159Z,55
2022-11-29T04:53:36.157Z,51
2022-11-29T04:57:36.170Z,52
2022-11-29T04:58:46.438Z,51
2022-11-29T04:59:36.164Z,47
2022-11-29T05:01:36.225Z,52
2022-11-29T05:02:46.566Z,50
2022-11-29T05:03:36.164Z,49
2022-11-29T05:06:36.178Z,59
2022-11-29T05:07:52.392Z,57
2022-11-29T05:10:36.175Z,57
2022-11-29T05:12:36.229Z,57
2022-11-29T05:16:36.210Z,62
2022-11-29T05:18:36.172Z,93
2022-11-29T05:19:46.462Z,81
2022-11-29T05:22:36.166Z,55
2022-11-29T05:23:36.191Z,56
2022-11-29T05:24:36.214Z,56
2022-11-29T05:25:46.447Z,52
2022-11-29T05:27:46.443Z,57
2022-11-29T05:28:36.166Z,50
2022-11-29T05:29:46.442Z,49
2022-11-29T05:32:36.179Z,54
2022-11-29T05:33:46.457Z,53
2022-11-29T05:34:36.166Z,52
2022-11-29T05:37:46.500Z,51
2022-11-29T05:38:36.182Z,56
2022-11-29T05:39:36.169Z,56
2022-11-29T05:41:36.176Z,65
2022-11-29T05:42:36.225Z,62
2022-11-29T05:43:36.168Z,54
2022-11-29T05:44:36.176Z,57
2022-11-29T05:46:36.241Z,57
2022-11-29T05:47:36.180Z,63
2022-11-29T05:48:36.173Z,51
2022-11-29T05:49:36.186Z,53
2022-11-29T05:50:36.171Z,56
2022-11-29T05:51:36.150Z,65
2022-11-29T05:52:36.172Z,56
2022-11-29T05:54:36.175Z,65
2022-11-29T05:55:36.151Z,56
2022-11-29T05:56:36.174Z,75
2022-11-29T05:58:36.189Z,56
2022-11-29T05:59:36.147Z,63
2022-11-29T06:00:36.152Z,66
2022-11-29T06:01:36.248Z,48
2022-11-29T06:03:36.163Z,52
2022-11-29T06:04:36.176Z,51
2022-11-29T06:05:36.154Z,50
2022-11-29T06:06:36.166Z,55
2022-11-29T06:08:36.177Z,51
2022-11-29T06:10:36.175Z,51
2022-11-29T06:11:36.149Z,50
2022-11-29T06:12:36.183Z,53
2022-11-29T06:13:36.153Z,50
2022-11-29T06:14:36.175Z,53
2022-11-29T06:15:36.153Z,58
2022-11-29T06:16:36.244Z,58
2022-11-29T06:18:36.200Z,55
2022-11-29T06:20:36.178Z,55
2022-11-29T06:21:36.151Z,76
2022-11-29T06:22:36.226Z,65
2022-11-29T06:23:36.152Z,63
2022-11-29T06:24:36.200Z,66
2022-11-29T06:25:36.151Z,58
2022-11-29T06:26:36.174Z,62
2022-11-29T06:28:36.171Z,55
2022-11-29T06:29:36.175Z,61
2022-11-29T06:30:36.173Z,55
2022-11-29T06:32:36.346Z,56
2022-11-29T06:34:36.181Z,60
2022-11-29T06:35:36.187Z,56
2022-11-29T06:36:36.167Z,58
2022-11-29T06:38:36.187Z,53
2022-11-29T06:40:36.177Z,55
2022-11-29T06:41:36.184Z,61
2022-11-29T06:42:36.180Z,57
2022-11-29T06:43:36.183Z,59
2022-11-29T06:45:36.240Z,57
2022-11-29T06:46:36.296Z,63
2022-11-29T06:47:36.198Z,60
2022-11-29T06:48:36.174Z,59
2022-11-29T06:49:36.197Z,55
2022-11-29T06:50:36.161Z,57
2022-11-29T06:52:36.170Z,57
2022-11-29T06:53:36.184Z,57
2022-11-29T06:54:36.175Z,61
2022-11-29T06:55:36.163Z,59
2022-11-29T06:56:36.180Z,59
2022-11-29T06:57:36.194Z,58
2022-11-29T06:58:36.570Z,60
2022-11-29T06:59:36.185Z,67
2022-11-29T07:00:36.253Z,72
2022-11-29T07:01:36.274Z,69
2022-11-29T07:02:36.174Z,65
2022-11-29T07:03:36.178Z,69
2022-11-29T07:04:38.065Z,61
2022-11-29T07:05:36.246Z,67
2022-11-29T07:06:36.181Z,61
2022-11-29T07:07:36.240Z,62
2022-11-29T07:08:36.183Z,64
2022-11-29T07:09:36.169Z,57
2022-11-29T07:10:36.194Z,64
2022-11-29T07:11:36.194Z,57
2022-11-29T07:12:36.175Z,55
2022-11-29T07:13:36.195Z,64
2022-11-29T07:14:36.183Z,60
2022-11-29T07:15:36.171Z,68
2022-11-29T07:16:36.208Z,66
2022-11-29T07:17:36.169Z,58
2022-11-29T07:19:36.180Z,60
2022-11-29T07:20:36.190Z,61
2022-11-29T07:21:36.187Z,64
2022-11-29T07:22:36.172Z,56
2022-11-29T07:24:36.170Z,63
2022-11-29T07:25:36.181Z,60
2022-11-29T07:27:36.176Z,60
2022-11-29T07:28:36.180Z,53
2022-11-29T07:29:36.183Z,63
2022-11-29T07:30:36.183Z,58
2022-11-29T07:31:36.217Z,53
2022-11-29T07:32:36.184Z,53
2022-11-29T07:33:36.178Z,58
2022-11-29T07:34:36.178Z,60
2022-11-29T07:35:36.179Z,55
2022-11-29T07:36:36.173Z,50
2022-11-29T07:37:36.176Z,53
2022-11-29T07:38:36.186Z,50
2022-11-29T07:39:36.182Z,58
2022-11-29T07:40:37.871Z,57
2022-11-29T07:41:36.190Z,59
2022-11-29T07:42:36.180Z,56
2022-11-29T07:43:36.175Z,52
2022-11-29T07:44:36.208Z,64
2022-11-29T07:45:36.250Z,56
2022-11-29T07:46:36.209Z,59
2022-11-29T07:47:36.390Z,52
2022-11-29T07:48:36.183Z,53
2022-11-29T07:49:52.530Z,56
2022-11-29T07:50:36.343Z,53
2022-11-29T07:52:36.178Z,54
2022-11-29T07:54:36.183Z,58
2022-11-29T07:56:36.192Z,54
2022-11-29T07:58:36.269Z,55
2022-11-29T08:00:36.204Z,84
2022-11-29T08:02:36.221Z,68
2022-11-29T08:04:36.191Z,57
2022-11-29T08:06:36.183Z,55
2022-11-29T08:10:36.181Z,55
2022-11-29T08:14:36.180Z,52
2022-11-29T08:16:36.257Z,52
2022-11-29T08:17:36.214Z,54
2022-11-29T08:18:36.177Z,48
2022-11-29T08:19:36.210Z,46
2022-11-29T08:20:36.207Z,56
2022-11-29T08:22:36.199Z,54
2022-11-29T08:24:36.229Z,54
2022-11-29T08:26:36.185Z,50
2022-11-29T08:28:36.187Z,50
2022-11-29T08:29:36.185Z,52
2022-11-29T08:30:36.185Z,48
2022-11-29T08:31:36.285Z,50
2022-11-29T08:32:36.185Z,55
2022-11-29T08:33:36.192Z,45
2022-11-29T08:34:36.192Z,45
2022-11-29T08:35:36.192Z,45
2022-11-29T08:36:36.187Z,51
2022-11-29T08:37:36.179Z,49
2022-11-29T08:38:36.343Z,53
2022-11-29T08:39:36.239Z,49
2022-11-29T08:40:36.181Z,47
2022-11-29T08:41:36.207Z,49
2022-11-29T08:42:36.200Z,44
2022-11-29T08:43:36.183Z,48
2022-11-29T08:44:36.187Z,51
2022-11-29T08:45:36.216Z,43
2022-11-29T08:46:36.187Z,54
2022-11-29T08:47:36.184Z,50
2022-11-29T08:48:36.191Z,51
2022-11-29T08:52:36.188Z,44
2022-11-29T08:54:36.186Z,48
2022-11-29T08:59:37.473Z,54
2022-11-29T09:00:36.187Z,49
2022-11-29T09:01:36.243Z,45
2022-11-29T09:02:36.244Z,54
2022-11-29T09:04:36.189Z,52
2022-11-29T09:05:36.198Z,51
2022-11-29T09:06:36.183Z,48
2022-11-29T09:10:36.193Z,42
2022-11-29T09:11:36.221Z,49
2022-11-29T09:12:36.200Z,45
2022-11-29T09:16:36.312Z,55
2022-11-29T09:18:36.464Z,54
2022-11-29T09:20:36.176Z,46
2022-11-29T09:22:36.225Z,49
2022-11-29T09:26:36.207Z,40
2022-11-29T09:34:36.200Z,48
2022-11-29T09:36:36.197Z,50
2022-11-29T09:39:36.192Z,45
2022-11-29T09:40:36.193Z,51
2022-11-29T09:41:36.198Z,48
2022-11-29T09:42:36.193Z,58
2022-11-29T09:44:36.205Z,57
2022-11-29T09:45:36.265Z,48
2022-11-29T09:46:36.202Z,56
2022-11-29T09:47:36.192Z,58
2022-11-29T09:48:36.193Z,56
2022-11-29T09:49:36.187Z,55
2022-11-29T09:50:36.195Z,62
2022-11-29T09:52:36.205Z,62
2022-11-29T09:54:36.192Z,59
2022-11-29T09:56:36.198Z,64
2022-11-29T09:58:36.257Z,63
2022-11-29T10:00:54.766Z,58
2022-11-29T10:01:36.330Z,57
2022-11-29T10:02:36.376Z,58
2022-11-29T10:03:36.203Z,66
2022-11-29T10:05:36.196Z,68
2022-11-29T10:07:36.238Z,67
2022-11-29T10:09:36.197Z,64
2022-11-29T10:11:36.225Z,67
2022-11-29T10:13:36.194Z,69
2022-11-29T10:15:36.204Z,72
2022-11-29T10:17:36.202Z,74
2022-11-29T10:21:36.208Z,69
2022-11-29T10:23:36.197Z,61
2022-11-29T10:25:36.191Z,62
2022-11-29T10:27:36.196Z,63
2022-11-29T10:29:36.294Z,65
2022-11-29T10:30:36.246Z,60
2022-11-29T10:31:36.211Z,67
2022-11-29T10:33:36.207Z,68
2022-11-29T10:35:36.195Z,58
2022-11-29T10:36:36.209Z,61
2022-11-29T10:37:36.216Z,72
2022-11-29T10:38:36.205Z,62
2022-11-29T10:39:36.248Z,66
2022-11-29T10:40:36.207Z,62
2022-11-29T10:41:36.205Z,65
2022-11-29T10:42:36.195Z,59
2022-11-29T10:43:36.200Z,54
2022-11-29T10:44:36.211Z,63
2022-11-29T10:45:36.322Z,65
2022-11-29T10:46:36.939Z,63
2022-11-29T10:47:36.212Z,60
2022-11-29T10:48:36.203Z,64
2022-11-29T10:49:36.208Z,63
2022-11-29T10:50:36.206Z,65
2022-11-29T10:51:36.209Z,70
2022-11-29T10:52:36.202Z,72
2022-11-29T10:53:36.211Z,66
2022-11-29T10:54:36.206Z,63
2022-11-29T10:55:36.212Z,66
2022-11-29T10:56:36.204Z,66
2022-11-29T10:57:36.210Z,59
2022-11-29T10:58:36.204Z,60
2022-11-29T10:59:36.205Z,76
2022-11-29T11:02:36.246Z,65
2022-11-29T11:03:36.206Z,70
2022-11-29T11:04:36.216Z,69
2022-11-29T11:05:36.244Z,66
2022-11-29T11:06:36.234Z,64
2022-11-29T11:07:36.293Z,72
2022-11-29T11:09:36.208Z,81
2022-11-29T11:10:36.240Z,68
2022-11-29T11:11:36.258Z,74
2022-11-29T11:12:36.194Z,76
2022-11-29T11:13:36.210Z,69
2022-11-29T11:14:36.206Z,74
2022-11-29T11:15:36.210Z,73
2022-11-29T11:16:37.698Z,72
2022-11-29T11:17:36.204Z,73
2022-11-29T11:18:36.219Z,76
2022-11-29T11:19:36.228Z,100
2022-11-29T11:20:36.214Z,99
2022-11-29T11:22:36.209Z,83
2022-11-29T11:24:36.210Z,84
2022-11-29T11:26:36.208Z,68
2022-11-29T11:27:46.490Z,79
2022-11-29T11:28:36.228Z,75
2022-11-29T11:30:36.259Z,70
2022-11-29T11:32:36.237Z,81
2022-11-29T11:34:36.389Z,79
2022-11-29T11:35:46.504Z,80
2022-11-29T11:36:36.226Z,73
2022-11-29T11:38:36.215Z,74
2022-11-29T11:40:36.251Z,81
2022-11-29T11:41:36.246Z,78
2022-11-29T11:42:36.214Z,76
2022-11-29T11:44:51.219Z,64
2022-11-29T11:45:36.205Z,75
2022-11-29T11:46:36.310Z,68
2022-11-29T11:47:36.219Z,73
2022-11-29T11:49:36.204Z,74
2022-11-29T11:50:36.212Z,74
2022-11-29T11:51:36.208Z,71
2022-11-29T11:52:40.183Z,64
2022-11-29T11:53:36.228Z,66
2022-11-29T11:54:36.224Z,70
2022-11-29T11:55:36.211Z,73
2022-11-29T11:56:36.248Z,61
2022-11-29T11:57:36.219Z,66
2022-11-29T11:58:36.211Z,69
2022-11-29T11:59:36.225Z,69
2022-11-29T12:01:02.399Z,77
2022-11-29T12:03:36.317Z,70
2022-11-29T12:04:36.217Z,69
2022-11-29T12:06:36.209Z,66
2022-11-29T12:08:07.384Z,63
2022-11-29T12:08:36.303Z,63
2022-11-29T12:09:46.506Z,67
2022-11-29T12:11:36.219Z,62
2022-11-29T12:12:36.218Z,61
2022-11-29T12:14:36.221Z,68
2022-11-29T12:16:36.215Z,72
2022-11-29T12:18:36.211Z,64
2022-11-29T12:21:36.231Z,71
2022-11-29T12:22:36.257Z,69
2022-11-29T12:23:36.220Z,68
2022-11-29T12:26:55.853Z,73
2022-11-29T12:27:36.254Z,70
2022-11-29T12:28:36.220Z,70
2022-11-29T12:31:36.310Z,76
2022-11-29T12:32:36.221Z,73
2022-11-29T12:34:36.214Z,72
2022-11-29T12:36:36.216Z,67
2022-11-29T12:37:36.218Z,76
2022-11-29T12:38:36.217Z,75
2022-11-29T12:39:36.240Z,74
2022-11-29T12:40:36.212Z,80
2022-11-29T12:41:36.219Z,75
2022-11-29T12:42:36.226Z,70
2022-11-29T12:43:36.214Z,74
2022-11-29T12:44:36.223Z,79
2022-11-29T12:45:36.227Z,70
2022-11-29T12:46:36.288Z,70
2022-11-29T12:47:37.021Z,69
2022-11-29T12:48:36.258Z,64
2022-11-29T12:50:36.217Z,66
2022-11-29T12:51:36.223Z,66
2022-11-29T12:52:36.220Z,64
2022-11-29T12:53:36.227Z,62
2022-11-29T12:54:36.237Z,63
2022-11-29T12:56:36.215Z,60
2022-11-29T12:58:38.190Z,68
2022-11-29T13:00:36.226Z,71
2022-11-29T13:01:36.349Z,78
2022-11-29T13:02:36.264Z,77
2022-11-29T13:03:36.206Z,68
2022-11-29T13:04:36.326Z,67
2022-11-29T13:05:36.218Z,67
2022-11-29T13:06:36.216Z,71
2022-11-29T13:08:36.226Z,59
2022-11-29T13:09:36.224Z,72
2022-11-29T13:10:36.224Z,65
2022-11-29T13:11:36.227Z,66
2022-11-29T13:13:36.218Z,77
2022-11-29T13:14:44.196Z,72
2022-11-29T13:15:36.283Z,68
2022-11-29T13:16:36.323Z,63
2022-11-29T13:17:36.234Z,70
2022-11-29T13:19:36.236Z,70
2022-11-29T13:20:36.229Z,68
2022-11-29T13:21:36.228Z,62
2022-11-29T13:22:36.229Z,64
2022-11-29T13:23:46.038Z,72
2022-11-29T13:24:42.411Z,67
2022-11-29T13:25:36.225Z,78
2022-11-29T13:26:36.219Z,76
2022-11-29T13:27:36.225Z,67
2022-11-29T13:28:36.231Z,73
2022-11-29T13:29:36.257Z,62
2022-11-29T13:30:36.223Z,93
2022-11-29T13:32:36.287Z,73
2022-11-29T13:33:36.226Z,63
2022-11-29T13:34:36.231Z,60
2022-11-29T13:35:36.238Z,64
2022-11-29T13:37:36.230Z,54
2022-11-29T13:38:36.227Z,57
2022-11-29T13:39:36.228Z,55
2022-11-29T13:40:36.234Z,60
2022-11-29T13:41:36.228Z,57
2022-11-29T13:42:36.229Z,61
2022-11-29T13:43:46.527Z,54
2022-11-29T13:44:36.233Z,55
2022-11-29T13:45:46.510Z,61
2022-11-29T13:46:36.277Z,56
2022-11-29T13:47:36.230Z,55
2022-11-29T13:48:36.250Z,58
2022-11-29T13:50:36.242Z,59
2022-11-29T13:51:36.230Z,49
2022-11-29T13:53:36.250Z,56
2022-11-29T13:55:36.232Z,54
2022-11-29T13:56:36.236Z,62
2022-11-29T13:58:00.778Z,59
2022-11-29T13:58:36.230Z,48
2022-11-29T14:00:36.259Z,52
2022-11-29T14:02:36.282Z,53
2022-11-29T14:03:36.244Z,53
2022-11-29T14:04:36.229Z,54
2022-11-29T14:06:36.250Z,52
2022-11-29T14:07:36.335Z,52
2022-11-29T14:09:10.299Z,53
2022-11-29T14:09:46.515Z,58
2022-11-29T14:10:36.264Z,50
2022-11-29T14:11:46.516Z,50
2022-11-29T14:12:36.232Z,53
2022-11-29T14:13:36.259Z,57
2022-11-29T14:14:36.238Z,56
2022-11-29T14:15:36.266Z,53
2022-11-29T14:16:36.245Z,52
2022-11-29T14:17:36.286Z,54
2022-11-29T14:19:36.265Z,63
2022-11-29T14:20:36.236Z,202
2022-11-29T14:22:36.239Z,236
2022-11-29T14:23:36.237Z,91
2022-11-29T14:24:36.235Z,76
2022-11-29T14:25:51.755Z,64
2022-11-29T14:26:36.261Z,56
2022-11-29T14:28:36.253Z,63
2022-11-29T14:29:36.232Z,62
2022-11-29T14:30:36.233Z,51
2022-11-29T14:31:36.420Z,51
2022-11-29T14:32:37.081Z,50
2022-11-29T14:34:36.239Z,57
2022-11-29T14:37:36.236Z,57
2022-11-29T14:38:36.236Z,61
2022-11-29T14:39:36.238Z,53
2022-11-29T14:40:46.521Z,65
2022-11-29T14:41:36.243Z,56
2022-11-29T14:42:36.247Z,61
2022-11-29T14:44:36.234Z,57
2022-11-29T14:48:36.242Z,55
2022-11-29T14:50:36.239Z,61
2022-11-29T14:51:36.253Z,53
2022-11-29T14:52:36.244Z,55
2022-11-29T14:54:36.247Z,53
2022-11-29T14:55:36.255Z,54
2022-11-29T14:56:36.243Z,57
2022-11-29T14:57:36.253Z,53
2022-11-29T14:58:36.243Z,60
2022-11-29T14:59:36.259Z,56
2022-11-29T15:00:36.244Z,53
2022-11-29T15:02:36.325Z,51
2022-11-29T15:03:36.301Z,55
2022-11-29T15:04:36.246Z,62
2022-11-29T15:05:36.265Z,58
2022-11-29T15:07:36.309Z,55
2022-11-29T15:08:36.246Z,55
2022-11-29T15:09:36.261Z,53
2022-11-29T15:10:36.238Z,48
2022-11-29T15:11:36.265Z,51
2022-11-29T15:12:36.236Z,52
2022-11-29T15:13:36.232Z,54
2022-11-29T15:14:36.246Z,51
2022-11-29T15:15:36.272Z,48
2022-11-29T15:16:36.451Z,54
2022-11-29T15:17:36.298Z,45
2022-11-29T15:19:36.264Z,53
2022-11-29T15:20:36.237Z,61
2022-11-29T15:21:36.262Z,53
2022-11-29T15:22:36.242Z,45
2022-11-29T15:25:36.262Z,49
2022-11-29T15:26:36.248Z,46
2022-11-29T15:27:40.151Z,51
2022-11-29T15:28:37.167Z,46
2022-11-29T15:29:36.246Z,45
2022-11-29T15:30:36.236Z,49
2022-11-29T15:32:36.241Z,46
2022-11-29T15:33:36.232Z,47
2022-11-29T15:34:36.256Z,53
2022-11-29T15:35:36.240Z,53
2022-11-29T15:36:36.241Z,45
2022-11-29T15:37:36.241Z,43
2022-11-29T15:38:36.238Z,43
2022-11-29T15:39:36.237Z,49
2022-11-29T15:40:36.248Z,51
2022-11-29T15:41:36.248Z,47
2022-11-29T15:42:36.240Z,46
2022-11-29T15:43:36.361Z,53
2022-11-29T15:44:36.244Z,43
2022-11-29T15:45:36.386Z,53
2022-11-29T15:46:36.286Z,53
2022-11-29T15:47:36.242Z,57
2022-11-29T15:48:36.274Z,66
2022-11-29T15:49:36.246Z,62
2022-11-29T15:50:36.250Z,50
2022-11-29T15:51:36.249Z,57
2022-11-29T15:52:36.249Z,48
2022-11-29T15:53:36.237Z,50
2022-11-29T15:54:36.249Z,58
2022-11-29T15:55:36.241Z,59
2022-11-29T15:56:36.241Z,56
2022-11-29T16:02:36.274Z,49
2022-11-29T16:04:36.247Z,55
2022-11-29T16:06:36.251Z,52
2022-11-29T16:08:36.252Z,59
2022-11-29T16:10:36.254Z,58
2022-11-29T16:11:36.283Z,75
2022-11-29T16:12:36.246Z,90
2022-11-29T16:14:36.256Z,64
2022-11-29T16:16:36.321Z,58
2022-11-29T16:18:36.258Z,58
2022-11-29T16:19:36.252Z,55
2022-11-29T16:20:36.327Z,53
2022-11-29T16:22:36.250Z,53
2022-11-29T16:23:36.258Z,60
2022-11-29T16:24:54.050Z,58
2022-11-29T16:25:37.869Z,55
2022-11-29T16:26:36.254Z,58
2022-11-29T16:27:36.262Z,62
2022-11-29T16:28:36.252Z,58
2022-11-29T16:29:36.254Z,58
2022-11-29T16:32:36.640Z,55
2022-11-29T16:33:36.253Z,65
2022-11-29T16:34:36.282Z,64
2022-11-29T16:35:36.259Z,54
2022-11-29T16:36:36.275Z,65
2022-11-29T16:37:36.254Z,58
2022-11-29T16:38:36.252Z,60
2022-11-29T16:40:36.253Z,62
2022-11-29T16:41:36.265Z,61
2022-11-29T16:43:36.253Z,65
2022-11-29T16:45:36.300Z,63
2022-11-29T16:46:36.256Z,72
2022-11-29T16:48:36.251Z,74
2022-11-29T16:49:36.257Z,64
2022-11-29T16:50:36.272Z,100
2022-11-29T16:51:36.261Z,96
2022-11-29T16:53:36.255Z,81
2022-11-29T16:54:36.257Z,67
2022-11-29T16:55:36.247Z,64
2022-11-29T16:56:36.262Z,59
2022-11-29T16:59:36.250Z,61
2022-11-29T17:01:36.343Z,64
2022-11-29T17:02:36.325Z,61
2022-11-29T17:03:36.249Z,69
2022-11-29T17:04:36.275Z,63
2022-11-29T17:07:36.331Z,57
2022-11-29T17:08:36.275Z,63
2022-11-29T17:09:36.232Z,62
2022-11-29T17:11:36.258Z,59
2022-11-29T17:12:36.270Z,60
2022-11-29T17:13:36.255Z,58
2022-11-29T17:14:36.296Z,64
2022-11-29T17:15:36.250Z,53
2022-11-29T17:17:36.249Z,64
2022-11-29T17:18:36.289Z,62
2022-11-29T17:19:36.252Z,60
2022-11-29T17:20:36.396Z,100
2022-11-29T17:22:36.277Z,80
2022-11-29T17:25:36.252Z,65
2022-11-29T17:26:36.244Z,57
2022-11-29T17:27:36.264Z,60
2022-11-29T17:28:36.289Z,56
2022-11-29T17:30:36.247Z,63
2022-11-29T17:32:36.258Z,53
2022-11-29T17:33:36.252Z,57
2022-11-29T17:34:36.250Z,60
2022-11-29T17:35:36.267Z,58
2022-11-29T17:36:36.258Z,60
2022-11-29T17:37:36.262Z,60
2022-11-29T17:38:36.255Z,64
2022-11-29T17:40:36.272Z,74
2022-11-29T17:41:36.265Z,149
2022-11-29T17:42:36.254Z,92
2022-11-29T17:45:36.370Z,244
2022-11-29T17:46:36.263Z,100
2022-11-29T17:47:36.257Z,82
2022-11-29T17:48:36.286Z,66
2022-11-29T17:49:36.254Z,63
2022-11-29T17:50:36.260Z,65
2022-11-29T17:51:53.120Z,63
2022-11-29T17:53:36.254Z,64
2022-11-29T17:55:36.255Z,58
2022-11-29T17:56:36.288Z,65
2022-11-29T17:57:36.255Z,60
2022-11-29T17:58:36.327Z,67
2022-11-29T17:59:36.259Z,64
2022-11-29T18:01:36.452Z,65
2022-11-29T18:02:36.317Z,61
2022-11-29T18:03:36.305Z,64
2022-11-29T18:04:46.549Z,69
2022-11-29T18:06:36.258Z,61
2022-11-29T18:07:36.309Z,64
2022-11-29T18:08:36.257Z,59
2022-11-29T18:09:36.255Z,67
2022-11-29T18:12:36.258Z,61
2022-11-29T18:14:36.275Z,65
2022-11-29T18:15:46.539Z,65
2022-11-29T18:17:36.263Z,62
2022-11-29T18:20:46.539Z,70
2022-11-29T18:21:36.266Z,60
2022-11-29T18:23:36.285Z,64
2022-11-29T18:25:54.732Z,68
2022-11-29T18:26:36.270Z,68
2022-11-29T18:27:36.264Z,68
2022-11-29T18:29:39.249Z,75
2022-11-29T18:30:36.315Z,69
2022-11-29T18:31:36.266Z,65
2022-11-29T18:33:36.256Z,67
2022-11-29T18:34:36.251Z,63
2022-11-29T18:35:36.262Z,68
2022-11-29T18:36:36.261Z,68
2022-11-29T18:38:12.938Z,61
2022-11-29T18:38:36.260Z,69
2022-11-29T18:41:36.266Z,62